Time;durP1;ratioP1;P1;durP2;ratioP2;P2;SDS_P1;SDS_P2;PMS_P1;PMS_P2;Temp;Humidity;BMP_temperature;BMP_pressure;BME280_temperature;BME280_humidity;BME280_pressure;Samples;Min_cycle;Max_cycle;Signal;HPM_P1;HPM_P2
2022/01/05 00:00:47;;;;;;;6.63;1.08;;;2.60;99.90;;;;;;4964545;28;20461;-57
2022/01/05 00:03:13;;;;;;;6.80;0.90;;;2.60;99.90;;;;;;4962028;28;20118;-57
2022/01/05 00:05:39;;;;;;;6.20;1.10;;;2.60;99.90;;;;;;4953064;28;20053;-58
2022/01/05 00:08:05;;;;;;;7.30;1.20;;;2.60;99.90;;;;;;4953307;28;20045;-57
2022/01/05 00:10:30;;;;;;;6.88;1.00;;;2.60;99.90;;;;;;4935690;28;20109;-57
2022/01/05 00:12:56;;;;;;;7.65;1.20;;;2.60;99.90;;;;;;4971148;28;20490;-58
2022/01/05 00:15:22;;;;;;;5.03;1.10;;;2.60;99.90;;;;;;4971727;28;20070;-58
2022/01/05 00:17:48;;;;;;;11.52;1.50;;;2.60;99.90;;;;;;4956921;28;20376;-57
2022/01/05 00:20:13;;;;;;;11.80;1.60;;;2.60;99.90;;;;;;4953806;28;20105;-57
2022/01/05 00:22:39;;;;;;;7.72;1.08;;;2.70;99.90;;;;;;4958509;28;20046;-57
2022/01/05 00:25:06;;;;;;;9.65;1.27;;;2.70;99.90;;;;;;4952704;28;20039;-58
2022/01/05 00:27:31;;;;;;;10.95;1.45;;;2.70;99.90;;;;;;4952833;28;20048;-58
2022/01/05 00:29:58;;;;;;;11.25;1.50;;;2.70;99.90;;;;;;4961009;28;20113;-58
2022/01/05 00:32:24;;;;;;;12.55;1.63;;;2.70;99.90;;;;;;4952599;28;20145;-57
2022/01/05 00:34:52;;;;;;;10.05;1.40;;;2.70;99.90;;;;;;4952454;28;20491;-58
2022/01/05 00:37:18;;;;;;;8.32;1.30;;;2.60;99.90;;;;;;4961893;28;20035;-57
2022/01/05 00:39:44;;;;;;;9.77;1.33;;;2.60;99.90;;;;;;4971894;28;20121;-58
2022/01/05 00:42:09;;;;;;;6.35;1.35;;;2.60;99.90;;;;;;4972119;28;20125;-58
2022/01/05 00:44:35;;;;;;;7.47;1.48;;;2.60;99.90;;;;;;4972400;28;20387;-57
2022/01/05 00:47:01;;;;;;;10.55;1.45;;;2.50;99.90;;;;;;4975673;28;20053;-58
2022/01/05 00:49:26;;;;;;;7.82;1.10;;;2.50;99.90;;;;;;4975915;28;20043;-58
2022/01/05 00:51:52;;;;;;;9.25;1.55;;;2.50;99.90;;;;;;4975632;28;20102;-58
2022/01/05 00:54:18;;;;;;;9.27;1.63;;;2.50;99.90;;;;;;4960300;28;20039;-57
2022/01/05 00:56:43;;;;;;;9.82;1.48;;;2.50;99.90;;;;;;4938799;28;20550;-58
2022/01/05 00:59:09;;;;;;;13.57;1.75;;;2.50;99.90;;;;;;4941934;28;20516;-57
2022/01/05 01:01:36;;;;;;;13.07;1.55;;;2.50;99.90;;;;;;4961990;28;20406;-58
2022/01/05 01:04:03;;;;;;;10.63;1.55;;;2.50;99.90;;;;;;4959851;28;20042;-58
2022/01/05 01:06:29;;;;;;;14.68;1.92;;;2.50;99.90;;;;;;4957481;28;20051;-58
2022/01/05 01:08:55;;;;;;;11.38;1.80;;;2.50;99.90;;;;;;4975633;28;20078;-58
2022/01/05 01:11:20;;;;;;;12.57;1.58;;;2.50;99.90;;;;;;4975228;28;20133;-57
2022/01/05 01:13:46;;;;;;;9.23;1.85;;;2.40;99.90;;;;;;4958715;28;20075;-57
2022/01/05 01:16:11;;;;;;;9.90;1.50;;;2.40;99.90;;;;;;4962021;28;20098;-58
2022/01/05 01:18:37;;;;;;;13.77;1.70;;;2.40;99.90;;;;;;4975481;28;20038;-58
2022/01/05 01:21:03;;;;;;;12.23;1.90;;;2.30;99.90;;;;;;4974950;28;20376;-57
2022/01/05 01:23:29;;;;;;;13.32;1.70;;;2.30;99.90;;;;;;4956079;28;20078;-58
2022/01/05 01:25:55;;;;;;;13.13;1.73;;;2.20;99.90;;;;;;4962922;28;20450;-58
2022/01/05 01:28:21;;;;;;;10.93;1.60;;;2.20;99.90;;;;;;4975126;28;20348;-58
2022/01/05 01:30:47;;;;;;;15.90;1.83;;;2.30;99.90;;;;;;4969615;28;20118;-57
2022/01/05 01:33:13;;;;;;;10.43;1.95;;;2.30;99.90;;;;;;4973897;28;20034;-58
2022/01/05 01:35:39;;;;;;;9.38;1.67;;;2.40;99.90;;;;;;4975070;28;20470;-58
2022/01/05 01:38:05;;;;;;;12.57;1.92;;;2.50;99.90;;;;;;4974595;28;20039;-57
2022/01/05 01:40:30;;;;;;;14.73;1.77;;;2.50;99.90;;;;;;4975158;28;20053;-58
2022/01/05 01:42:56;;;;;;;16.40;3.03;;;2.60;99.90;;;;;;4975109;28;20042;-57
2022/01/05 01:45:22;;;;;;;11.27;2.03;;;2.60;99.90;;;;;;4974546;28;20034;-58
2022/01/05 01:47:48;;;;;;;17.70;2.15;;;2.60;99.90;;;;;;4958173;28;20039;-58
2022/01/05 01:50:14;;;;;;;14.73;2.17;;;2.70;99.90;;;;;;4971269;28;20043;-58
2022/01/05 01:52:40;;;;;;;16.00;2.00;;;2.70;99.90;;;;;;4955551;28;20038;-58
2022/01/05 01:55:08;;;;;;;11.23;1.98;;;2.70;99.90;;;;;;4963751;28;20089;-58
2022/01/05 01:57:36;;;;;;;12.40;1.77;;;2.70;99.90;;;;;;4973672;28;20039;-58
2022/01/05 02:00:04;;;;;;;12.52;1.88;;;2.70;99.90;;;;;;4956834;28;20084;-57
2022/01/05 02:02:30;;;;;;;14.13;2.05;;;2.70;99.90;;;;;;4955039;28;20036;-58
2022/01/05 02:04:56;;;;;;;11.43;2.00;;;2.70;99.90;;;;;;4971922;28;20046;-58
2022/01/05 02:07:22;;;;;;;12.80;1.63;;;2.70;99.90;;;;;;4974545;28;20035;-58
2022/01/05 02:09:48;;;;;;;19.38;2.30;;;2.80;99.90;;;;;;4974316;28;20039;-58
2022/01/05 02:12:14;;;;;;;11.68;1.75;;;2.80;99.90;;;;;;4962480;28;20039;-58
2022/01/05 02:14:39;;;;;;;15.05;2.17;;;2.80;99.90;;;;;;4973972;28;20049;-57
2022/01/05 02:17:15;;;;;;;16.98;2.17;;;2.80;99.90;;;;;;4959388;28;20491;-58
2022/01/05 02:19:41;;;;;;;12.45;2.20;;;2.90;99.90;;;;;;4974378;28;20061;-58
2022/01/05 02:22:06;;;;;;;16.55;2.08;;;2.80;99.90;;;;;;4974099;28;20047;-57
2022/01/05 02:24:32;;;;;;;14.10;2.22;;;2.80;99.90;;;;;;4963776;28;20047;-58
2022/01/05 02:26:58;;;;;;;13.95;2.10;;;2.80;99.90;;;;;;4973760;28;20053;-58
2022/01/05 02:29:24;;;;;;;20.10;2.47;;;2.90;99.90;;;;;;4973862;28;20046;-58
2022/01/05 02:31:50;;;;;;;13.80;2.38;;;2.90;99.90;;;;;;4967310;28;20487;-58
2022/01/05 02:34:16;;;;;;;14.93;2.28;;;2.90;99.90;;;;;;4955751;28;20042;-57
2022/01/05 02:36:42;;;;;;;20.65;2.22;;;2.90;99.90;;;;;;4954705;28;20043;-58
2022/01/05 02:39:08;;;;;;;18.02;3.10;;;2.90;99.90;;;;;;4955736;28;20502;-57
2022/01/05 02:41:33;;;;;;;19.95;2.70;;;2.90;99.90;;;;;;4954782;28;20039;-58
2022/01/05 02:43:59;;;;;;;15.48;2.22;;;3.00;99.90;;;;;;4954108;28;21300;-58
2022/01/05 02:46:25;;;;;;;17.35;2.08;;;3.00;99.90;;;;;;4958727;28;20427;-57
2022/01/05 02:48:53;;;;;;;13.32;2.20;;;3.00;99.90;;;;;;4972986;28;20054;-57
2022/01/05 02:51:19;;;;;;;18.80;2.67;;;3.00;99.90;;;;;;4959709;28;20050;-58
2022/01/05 02:53:45;;;;;;;19.77;2.78;;;3.00;99.90;;;;;;4954476;28;20035;-57
2022/01/05 02:56:11;;;;;;;18.13;2.65;;;3.00;99.90;;;;;;4971911;28;20126;-57
2022/01/05 02:58:37;;;;;;;14.82;2.05;;;3.10;99.90;;;;;;4972260;28;20154;-57
2022/01/05 03:01:04;;;;;;;14.32;2.30;;;3.10;99.90;;;;;;4954313;28;20035;-58
2022/01/05 03:03:30;;;;;;;19.40;2.45;;;3.20;99.90;;;;;;4954067;28;20039;-58
2022/01/05 03:05:55;;;;;;;13.77;2.47;;;3.10;99.90;;;;;;4955631;28;20073;-58
2022/01/05 03:08:21;;;;;;;18.95;2.40;;;3.20;99.90;;;;;;4955180;28;20510;-58
2022/01/05 03:10:47;;;;;;;14.52;3.15;;;3.30;99.90;;;;;;4973210;28;20042;-57
2022/01/05 03:13:13;;;;;;;17.95;2.72;;;3.30;99.90;;;;;;4973213;28;20429;-58
2022/01/05 03:15:38;;;;;;;19.10;2.95;;;3.40;99.90;;;;;;4969110;28;20032;-58
2022/01/05 03:18:05;;;;;;;13.68;2.88;;;3.40;99.90;;;;;;4962650;28;20090;-58
2022/01/05 03:20:31;;;;;;;23.15;3.15;;;3.50;99.90;;;;;;4965708;28;20054;-58
2022/01/05 03:22:58;;;;;;;16.63;2.55;;;3.50;99.90;;;;;;4953965;28;20609;-58
2022/01/05 03:25:25;;;;;;;18.30;2.55;;;3.50;99.90;;;;;;4957633;28;20051;-58
2022/01/05 03:27:52;;;;;;;18.30;2.40;;;3.60;99.90;;;;;;4957940;28;20181;-58
2022/01/05 03:30:25;;;;;;;15.95;2.55;;;3.70;99.90;;;;;;4955322;28;20066;-57
2022/01/05 03:33:12;;;;;;;18.63;2.47;;;3.70;99.90;;;;;;4973110;28;20026;-58
2022/01/05 03:35:41;;;;;;;17.52;2.55;;;3.80;99.90;;;;;;4972017;28;20038;-58
2022/01/05 03:38:07;;;;;;;14.32;2.60;;;3.80;99.90;;;;;;4972822;28;20375;-57
2022/01/05 03:40:34;;;;;;;16.23;2.33;;;3.80;99.90;;;;;;4972748;28;20045;-58
2022/01/05 03:43:01;;;;;;;12.45;2.22;;;3.80;99.90;;;;;;4972810;28;20178;-58
2022/01/05 03:45:27;;;;;;;13.48;2.65;;;3.70;99.90;;;;;;4971832;28;20078;-57
2022/01/05 03:47:52;;;;;;;15.90;3.10;;;3.70;99.90;;;;;;4972733;28;20112;-58
2022/01/05 03:50:18;;;;;;;11.50;2.17;;;3.70;99.90;;;;;;4972526;28;20166;-58
2022/01/05 03:52:44;;;;;;;19.17;2.70;;;3.70;99.90;;;;;;4972654;28;20541;-58
2022/01/05 03:55:09;;;;;;;16.30;2.53;;;3.70;99.90;;;;;;4972311;28;20050;-58
2022/01/05 03:57:35;;;;;;;15.20;1.90;;;3.70;99.90;;;;;;4972639;28;20038;-58
2022/01/05 04:00:01;;;;;;;15.48;2.70;;;3.70;99.90;;;;;;4971364;28;20096;-58
2022/01/05 04:02:27;;;;;;;17.77;2.40;;;3.70;99.90;;;;;;4965045;28;20031;-58
2022/01/05 04:04:53;;;;;;;14.68;2.05;;;3.70;99.90;;;;;;4953276;28;20058;-59
2022/01/05 04:07:19;;;;;;;15.63;2.40;;;3.70;99.90;;;;;;4953960;28;20039;-58
2022/01/05 04:09:45;;;;;;;19.52;3.35;;;3.70;99.90;;;;;;4953223;28;20031;-58
2022/01/05 04:12:11;;;;;;;19.67;2.70;;;3.70;99.90;;;;;;4958230;28;20494;-58
2022/01/05 04:14:36;;;;;;;15.38;2.10;;;3.70;99.90;;;;;;4970351;28;20102;-57
2022/01/05 04:17:02;;;;;;;16.88;2.55;;;3.70;99.90;;;;;;4971906;28;20606;-58
2022/01/05 04:19:28;;;;;;;15.05;2.20;;;3.70;99.90;;;;;;4971841;28;20187;-58
2022/01/05 04:21:54;;;;;;;14.23;2.00;;;3.80;99.90;;;;;;4972383;28;20478;-58
2022/01/05 04:24:19;;;;;;;14.50;2.45;;;3.80;99.90;;;;;;4964045;28;20118;-58
2022/01/05 04:26:45;;;;;;;17.48;2.38;;;3.90;99.90;;;;;;4971968;28;20065;-58
2022/01/05 04:29:11;;;;;;;14.05;2.20;;;3.90;99.90;;;;;;4966933;28;20463;-57
2022/01/05 04:31:37;;;;;;;18.13;2.35;;;3.90;99.90;;;;;;4968988;28;20048;-58
2022/01/05 04:34:03;;;;;;;18.50;2.20;;;4.00;99.90;;;;;;4963421;28;20046;-58
2022/01/05 04:36:29;;;;;;;16.05;2.08;;;4.00;99.90;;;;;;4962603;28;20110;-59
2022/01/05 04:38:54;;;;;;;13.70;2.22;;;4.00;99.90;;;;;;4957517;28;20122;-58
2022/01/05 04:41:20;;;;;;;14.45;1.92;;;4.10;99.90;;;;;;4963352;28;20310;-58
2022/01/05 04:43:46;;;;;;;12.75;2.03;;;4.10;99.90;;;;;;4953793;28;20035;-57
2022/01/05 04:46:12;;;;;;;18.60;2.30;;;4.10;99.90;;;;;;4954373;28;20386;-58
2022/01/05 04:48:37;;;;;;;19.05;2.13;;;4.10;99.90;;;;;;4954715;28;20134;-58
2022/01/05 04:51:03;;;;;;;18.58;2.22;;;4.00;99.90;;;;;;4944923;28;20377;-58
2022/01/05 04:53:29;;;;;;;18.75;3.08;;;4.10;99.90;;;;;;4961974;28;20073;-58
2022/01/05 04:55:55;;;;;;;13.30;2.03;;;4.10;99.90;;;;;;4953098;28;20376;-58
2022/01/05 04:58:21;;;;;;;13.27;2.03;;;4.10;99.90;;;;;;4959215;28;20045;-58
2022/01/05 05:00:46;;;;;;;12.60;2.20;;;4.10;99.90;;;;;;4971660;28;20050;-58
2022/01/05 05:03:12;;;;;;;19.33;2.30;;;4.10;99.90;;;;;;4971456;28;20058;-58
2022/01/05 05:05:38;;;;;;;16.88;3.20;;;4.10;99.90;;;;;;4969406;28;20181;-58
2022/01/05 05:08:04;;;;;;;14.93;2.20;;;4.10;99.90;;;;;;4970577;28;20505;-58
2022/01/05 05:10:30;;;;;;;12.00;2.47;;;4.10;99.90;;;;;;4986394;28;20178;-59
2022/01/05 05:12:55;;;;;;;14.98;2.17;;;4.10;99.90;;;;;;4971763;28;20386;-58
2022/01/05 05:15:21;;;;;;;11.10;2.25;;;4.10;99.90;;;;;;4971200;28;20487;-58
2022/01/05 05:17:47;;;;;;;12.48;2.10;;;4.20;99.90;;;;;;4969889;28;20634;-57
2022/01/05 05:20:13;;;;;;;16.63;2.35;;;4.20;99.90;;;;;;4971669;28;20078;-58
2022/01/05 05:22:38;;;;;;;12.15;1.92;;;4.30;99.90;;;;;;4971775;28;20493;-58
2022/01/05 05:25:05;;;;;;;14.20;2.50;;;4.30;99.90;;;;;;4971561;28;20118;-58
2022/01/05 05:27:31;;;;;;;13.95;2.75;;;4.40;99.90;;;;;;4971629;28;20070;-57
2022/01/05 05:29:57;;;;;;;18.25;2.20;;;4.40;99.90;;;;;;4964439;28;20199;-57
2022/01/05 05:32:22;;;;;;;14.55;1.95;;;4.40;99.90;;;;;;4955568;28;20050;-57
2022/01/05 05:34:48;;;;;;;14.98;2.40;;;4.40;99.90;;;;;;4956677;28;20046;-58
2022/01/05 05:37:16;;;;;;;10.02;2.53;;;4.40;99.90;;;;;;4958547;28;20047;-58
2022/01/05 05:39:43;;;;;;;14.07;2.10;;;4.40;99.90;;;;;;4955847;28;20059;-58
2022/01/05 05:42:09;;;;;;;11.00;2.00;;;4.40;99.90;;;;;;4960121;28;20101;-57
2022/01/05 05:44:35;;;;;;;13.70;2.38;;;4.40;99.90;;;;;;4974571;28;20050;-58
2022/01/05 05:47:00;;;;;;;15.10;2.50;;;4.40;99.90;;;;;;4971026;28;20430;-58
2022/01/05 05:49:26;;;;;;;12.80;1.92;;;4.40;99.90;;;;;;4960236;28;20094;-58
2022/01/05 05:51:52;;;;;;;19.05;2.30;;;4.50;99.90;;;;;;4974459;28;20459;-58
2022/01/05 05:54:18;;;;;;;14.88;2.28;;;4.50;99.90;;;;;;4974620;28;20438;-58
2022/01/05 05:56:43;;;;;;;10.35;2.33;;;4.50;99.90;;;;;;4974561;28;20545;-58
2022/01/05 05:59:09;;;;;;;15.05;2.15;;;4.50;99.90;;;;;;4974249;28;20030;-58
2022/01/05 06:01:35;;;;;;;13.98;2.22;;;4.50;99.90;;;;;;4955214;28;20054;-58
2022/01/05 06:04:00;;;;;;;18.55;2.65;;;4.50;99.90;;;;;;4970243;28;20050;-58
2022/01/05 06:06:27;;;;;;;15.07;2.15;;;4.50;99.90;;;;;;4974722;28;20074;-57
2022/01/05 06:08:54;;;;;;;18.73;3.22;;;4.50;99.90;;;;;;4974082;28;20465;-58
2022/01/05 06:11:19;;;;;;;13.10;2.50;;;4.40;99.90;;;;;;4974456;28;20038;-57
2022/01/05 06:13:45;;;;;;;12.07;2.22;;;4.40;99.90;;;;;;4973927;28;20475;-57
2022/01/05 06:16:11;;;;;;;19.02;3.38;;;4.40;99.90;;;;;;4970550;28;20543;-57
2022/01/05 06:18:37;;;;;;;16.45;2.22;;;4.40;99.90;;;;;;4960899;28;20372;-56
2022/01/05 06:21:03;;;;;;;15.52;2.35;;;4.30;99.90;;;;;;4955047;28;20079;-58
2022/01/05 06:23:29;;;;;;;16.13;2.75;;;4.30;99.90;;;;;;4941577;28;20047;-58
2022/01/05 06:25:54;;;;;;;10.10;2.17;;;4.20;99.90;;;;;;4955124;28;20107;-58
2022/01/05 06:28:20;;;;;;;12.65;2.47;;;4.20;99.90;;;;;;4962436;28;20035;-57
2022/01/05 06:30:46;;;;;;;16.92;2.17;;;4.10;99.90;;;;;;4966294;28;20046;-57
2022/01/05 06:33:11;;;;;;;21.20;3.05;;;4.20;99.90;;;;;;4954845;28;20035;-57
2022/01/05 06:35:37;;;;;;;16.90;2.88;;;4.10;99.90;;;;;;4970911;28;20334;-58
2022/01/05 06:38:03;;;;;;;19.02;2.30;;;4.10;99.90;;;;;;4954780;28;20032;-58
2022/01/05 06:40:29;;;;;;;18.23;2.30;;;4.10;99.90;;;;;;4954891;28;20039;-57
2022/01/05 06:42:54;;;;;;;13.68;2.38;;;4.00;99.90;;;;;;4964171;28;20482;-58
2022/01/05 06:45:21;;;;;;;14.65;2.38;;;4.10;99.90;;;;;;4972162;28;20046;-58
2022/01/05 06:47:46;;;;;;;16.48;2.63;;;3.90;99.90;;;;;;4974006;28;20050;-57
2022/01/05 06:50:12;;;;;;;22.70;2.97;;;3.90;99.90;;;;;;4974056;28;20042;-57
2022/01/05 06:52:39;;;;;;;22.33;2.30;;;3.90;99.90;;;;;;4973242;28;20039;-58
2022/01/05 06:55:06;;;;;;;17.23;2.45;;;3.80;99.90;;;;;;4955698;28;20047;-57
2022/01/05 06:57:31;;;;;;;13.75;2.30;;;3.80;99.90;;;;;;4972587;28;20403;-58
2022/01/05 06:59:57;;;;;;;18.23;2.28;;;3.80;99.90;;;;;;4973503;28;20038;-58
2022/01/05 07:02:23;;;;;;;17.02;2.50;;;3.80;99.90;;;;;;4961152;28;20555;-58
2022/01/05 07:04:48;;;;;;;16.58;2.38;;;3.80;99.90;;;;;;4962527;28;20038;-57
2022/01/05 07:07:14;;;;;;;21.17;2.35;;;3.80;99.90;;;;;;4973651;28;20045;-58
2022/01/05 07:09:40;;;;;;;16.75;2.45;;;3.90;99.90;;;;;;4957974;28;20039;-58
2022/01/05 07:12:06;;;;;;;20.65;2.42;;;3.90;99.90;;;;;;4956445;28;20045;-58
2022/01/05 07:14:32;;;;;;;23.33;2.95;;;3.90;99.90;;;;;;4971680;28;20097;-58
2022/01/05 07:16:58;;;;;;;20.73;2.63;;;3.90;99.90;;;;;;4973159;28;20050;-58
2022/01/05 07:19:23;;;;;;;25.45;3.53;;;4.00;99.90;;;;;;4958399;28;20499;-58
2022/01/05 07:21:49;;;;;;;24.83;3.30;;;4.00;99.90;;;;;;4954001;28;20082;-59
2022/01/05 07:24:17;;;;;;;22.73;2.90;;;4.10;99.90;;;;;;4954085;28;20051;-58
2022/01/05 07:26:44;;;;;;;19.25;3.67;;;4.10;99.90;;;;;;4954538;28;20090;-59
2022/01/05 07:29:15;;;;;;;24.15;2.70;;;4.20;99.90;;;;;;4955863;28;20474;-58
2022/01/05 07:31:41;;;;;;;22.23;3.42;;;4.20;99.90;;;;;;4957141;28;20094;-58
2022/01/05 07:34:07;;;;;;;23.85;3.42;;;4.30;99.90;;;;;;4958080;28;20066;-59
2022/01/05 07:36:33;;;;;;;22.38;2.85;;;4.30;99.90;;;;;;4953456;28;20043;-58
2022/01/05 07:38:59;;;;;;;18.83;3.00;;;4.40;99.90;;;;;;4954225;28;20113;-58
2022/01/05 07:41:25;;;;;;;13.23;2.13;;;4.40;99.90;;;;;;4965342;28;20035;-59
2022/01/05 07:43:51;;;;;;;15.38;2.17;;;4.40;99.90;;;;;;4945468;28;20367;-58
2022/01/05 07:46:18;;;;;;;21.50;2.55;;;4.40;99.90;;;;;;4970584;28;20037;-58
2022/01/05 07:48:44;;;;;;;16.25;2.55;;;4.30;99.90;;;;;;4957992;28;20082;-58
2022/01/05 07:51:09;;;;;;;14.80;1.92;;;4.40;99.90;;;;;;4952224;28;20191;-57
2022/01/05 07:53:35;;;;;;;16.00;2.13;;;4.40;99.90;;;;;;4962730;28;20035;-58
2022/01/05 07:56:01;;;;;;;17.15;2.10;;;4.40;99.90;;;;;;4952901;28;20035;-58
2022/01/05 07:58:27;;;;;;;17.70;2.65;;;4.40;99.90;;;;;;4953289;28;20423;-58
2022/01/05 08:00:53;;;;;;;21.60;2.25;;;4.40;99.90;;;;;;4966979;28;20122;-57
2022/01/05 08:03:18;;;;;;;16.33;2.28;;;4.50;99.90;;;;;;4972234;28;20121;-58
2022/01/05 08:05:44;;;;;;;17.73;2.30;;;4.40;99.90;;;;;;4962765;28;20681;-58
2022/01/05 08:08:10;;;;;;;14.57;2.13;;;4.40;99.90;;;;;;4962895;28;20044;-59
2022/01/05 08:10:35;;;;;;;18.50;2.92;;;4.40;99.90;;;;;;4953975;28;20047;-58
2022/01/05 08:13:01;;;;;;;15.35;1.90;;;4.60;99.90;;;;;;4966191;28;20086;-58
2022/01/05 08:15:27;;;;;;;16.15;2.55;;;4.50;99.90;;;;;;4961702;28;20105;-58
2022/01/05 08:17:53;;;;;;;19.75;2.67;;;4.50;99.90;;;;;;4972233;28;20050;-58
2022/01/05 08:20:18;;;;;;;16.70;2.65;;;4.60;99.90;;;;;;4972332;28;20039;-58
2022/01/05 08:22:46;;;;;;;18.63;2.97;;;4.60;99.90;;;;;;4972438;28;20455;-58
2022/01/05 08:25:15;;;;;;;23.98;2.78;;;4.60;99.90;;;;;;4972118;28;20082;-58
2022/01/05 08:27:46;;;;;;;18.10;2.10;;;4.60;99.90;;;;;;4970374;28;20050;-59
2022/01/05 08:30:24;;;;;;;17.88;2.85;;;4.60;99.90;;;;;;4963662;28;20042;-58
2022/01/05 08:32:54;;;;;;;16.17;2.47;;;4.70;99.90;;;;;;4962326;28;20460;-59
2022/01/05 08:35:22;;;;;;;19.10;2.33;;;4.70;99.90;;;;;;4952422;28;20483;-59
2022/01/05 08:37:48;;;;;;;22.30;2.95;;;4.70;99.90;;;;;;4955972;28;20043;-58
2022/01/05 08:40:25;;;;;;;18.20;2.35;;;4.80;99.90;;;;;;4955574;28;20031;-58
2022/01/05 08:42:53;;;;;;;23.60;2.97;;;4.80;99.90;;;;;;4956377;28;20407;-58
2022/01/05 08:45:19;;;;;;;14.18;2.53;;;4.70;99.90;;;;;;4957389;28;20101;-58
2022/01/05 08:47:49;;;;;;;23.67;2.90;;;4.80;99.90;;;;;;4936688;28;20067;-58
2022/01/05 08:50:17;;;;;;;16.80;2.10;;;4.80;99.90;;;;;;4955129;28;20479;-58
2022/01/05 08:52:44;;;;;;;19.77;2.47;;;4.80;99.90;;;;;;4955259;28;20050;-59
2022/01/05 08:55:14;;;;;;;21.17;2.83;;;4.80;99.90;;;;;;4953490;28;20039;-59
2022/01/05 08:57:40;;;;;;;18.83;2.95;;;4.80;99.90;;;;;;4958190;28;20477;-58
2022/01/05 09:00:07;;;;;;;18.30;2.53;;;4.80;99.90;;;;;;4958114;28;20035;-59
2022/01/05 09:02:33;;;;;;;26.35;3.22;;;5.40;99.90;;;;;;4953607;28;20493;-58
2022/01/05 09:04:59;;;;;;;17.08;2.53;;;4.90;99.90;;;;;;4953861;28;20035;-58
2022/01/05 09:07:25;;;;;;;16.63;2.40;;;5.00;99.90;;;;;;4958470;28;20085;-59
2022/01/05 09:09:51;;;;;;;19.58;2.45;;;5.00;99.90;;;;;;4960717;28;20062;-58
2022/01/05 09:12:17;;;;;;;18.83;2.50;;;5.00;99.90;;;;;;4960258;28;20039;-58
2022/01/05 09:14:42;;;;;;;25.88;2.90;;;5.00;99.90;;;;;;4960096;28;20039;-59
2022/01/05 09:17:09;;;;;;;19.58;2.42;;;5.00;99.90;;;;;;4959868;28;20046;-58
2022/01/05 09:19:35;;;;;;;17.15;2.58;;;5.00;99.90;;;;;;4957876;28;20046;-59
2022/01/05 09:22:02;;;;;;;17.80;2.20;;;5.00;99.90;;;;;;4959196;28;20150;-58
2022/01/05 09:24:28;;;;;;;24.35;3.17;;;4.90;99.90;;;;;;4959708;28;20081;-58
2022/01/05 09:26:57;;;;;;;17.33;3.47;;;4.90;99.90;;;;;;4960124;28;20103;-59
2022/01/05 09:29:23;;;;;;;18.60;2.83;;;4.90;99.90;;;;;;4958348;28;20522;-59
2022/01/05 09:31:50;;;;;;;24.48;2.60;;;5.00;99.90;;;;;;4961549;28;20046;-58
2022/01/05 09:34:16;;;;;;;23.25;3.13;;;5.00;99.90;;;;;;4960203;28;20032;-59
2022/01/05 09:36:47;;;;;;;19.30;2.38;;;5.00;99.90;;;;;;4958176;28;20045;-59
2022/01/05 09:41:57;;;;;;;20.15;2.97;;;5.10;99.90;;;;;;4959287;28;20110;-58
2022/01/05 09:44:43;;;;;;;18.27;2.97;;;5.10;99.90;;;;;;4957741;28;20038;-59
2022/01/05 09:47:11;;;;;;;17.90;2.63;;;5.20;99.90;;;;;;4960145;28;20121;-59
2022/01/05 09:49:42;;;;;;;19.65;2.60;;;5.20;99.90;;;;;;4956444;28;20109;-59
2022/01/05 09:52:11;;;;;;;17.25;2.13;;;5.20;99.90;;;;;;4958989;28;20541;-59
2022/01/05 09:54:43;;;;;;;19.25;2.20;;;5.20;99.90;;;;;;4957407;28;20498;-58
2022/01/05 09:57:13;;;;;;;22.38;2.55;;;5.20;99.90;;;;;;4959820;28;20038;-59
2022/01/05 09:59:39;;;;;;;19.25;2.42;;;5.20;99.90;;;;;;4958270;28;20036;-58
2022/01/05 10:02:07;;;;;;;20.35;2.65;;;5.30;99.90;;;;;;4957588;28;20042;-58
2022/01/05 10:04:37;;;;;;;25.15;2.50;;;5.30;99.90;;;;;;4956705;28;20034;-59
2022/01/05 10:07:04;;;;;;;23.80;3.10;;;5.30;99.90;;;;;;4960245;28;20050;-58
2022/01/05 10:09:30;;;;;;;19.98;2.67;;;5.40;99.90;;;;;;4957499;28;20043;-59
2022/01/05 10:11:56;;;;;;;19.33;2.55;;;5.40;99.90;;;;;;4941969;28;20047;-59
2022/01/05 10:14:22;;;;;;;17.60;2.33;;;5.50;99.90;;;;;;4961699;28;20073;-59
2022/01/05 10:17:15;;;;;;;20.55;2.88;;;5.50;99.90;;;;;;4956995;28;20051;-59
2022/01/05 10:19:42;;;;;;;18.55;2.42;;;5.60;99.90;;;;;;4957802;28;20446;-59
2022/01/05 10:22:26;;;;;;;15.43;2.10;;;5.70;99.90;;;;;;4961388;28;20035;-59
2022/01/05 10:24:54;;;;;;;14.85;2.40;;;5.80;99.90;;;;;;4958432;28;20035;-59
2022/01/05 10:27:21;;;;;;;12.70;2.25;;;5.90;99.90;;;;;;4956226;28;20122;-59
2022/01/05 10:30:11;;;;;;;13.63;1.45;;;5.90;99.90;;;;;;4957701;28;20519;-58
2022/01/05 10:32:37;;;;;;;7.80;1.17;;;6.10;99.90;;;;;;4960412;28;20066;-58
2022/01/05 10:35:06;;;;;;;6.53;1.17;;;6.30;99.90;;;;;;4961139;28;20172;-59
2022/01/05 10:37:33;;;;;;;10.45;1.60;;;6.30;99.90;;;;;;4961493;28;20034;-59
2022/01/05 10:40:22;;;;;;;15.52;1.58;;;6.30;99.90;;;;;;4957740;28;20041;-59
2022/01/05 10:42:56;;;;;;;15.35;1.85;;;6.20;99.90;;;;;;4956126;28;20039;-58
2022/01/05 10:45:23;;;;;;;16.17;1.98;;;6.10;99.90;;;;;;4959470;28;20037;-58
2022/01/05 10:48:02;;;;;;;18.25;2.05;;;6.10;99.90;;;;;;4959653;28;20042;-58
2022/01/05 10:50:28;;;;;;;17.45;2.42;;;6.00;99.90;;;;;;4949004;28;20065;-59
2022/01/05 10:52:56;;;;;;;18.40;2.20;;;6.00;99.90;;;;;;4960247;28;21251;-59
2022/01/05 10:55:24;;;;;;;18.92;2.45;;;6.00;99.90;;;;;;4958748;28;20109;-59
2022/01/05 10:58:11;;;;;;;17.25;2.80;;;6.00;99.90;;;;;;4957893;28;20106;-59
2022/01/05 11:00:46;;;;;;;14.95;2.45;;;6.00;99.90;;;;;;4957245;28;20035;-59
2022/01/05 11:03:27;;;;;;;18.48;2.35;;;6.00;99.90;;;;;;4957796;28;20047;-59
2022/01/05 11:06:05;;;;;;;23.48;2.22;;;6.00;99.90;;;;;;4957071;28;20054;-59
2022/01/05 11:08:50;;;;;;;20.23;2.45;;;6.10;99.90;;;;;;4956787;28;20070;-59
2022/01/05 11:11:38;;;;;;;15.13;2.55;;;6.20;99.90;;;;;;4959054;28;20050;-58
2022/01/05 11:14:09;;;;;;;17.70;2.00;;;6.30;99.90;;;;;;4960330;28;20172;-59
2022/01/05 11:16:37;;;;;;;14.07;2.08;;;6.50;99.90;;;;;;4945761;28;20138;-59
2022/01/05 11:19:19;;;;;;;15.48;2.42;;;6.80;99.90;;;;;;4956553;28;20054;-59
2022/01/05 11:22:10;;;;;;;16.60;2.50;;;7.10;99.90;;;;;;4957612;28;20168;-59
2022/01/05 11:24:46;;;;;;;9.70;1.80;;;7.30;99.90;;;;;;4970507;28;20118;-59
2022/01/05 11:27:17;;;;;;;15.45;2.60;;;7.40;99.90;;;;;;4968956;28;20495;-59
2022/01/05 11:29:44;;;;;;;16.95;2.55;;;7.50;99.90;;;;;;4961460;28;20106;-59
2022/01/05 11:32:12;;;;;;;18.27;3.35;;;7.40;99.90;;;;;;4973201;28;20446;-59
2022/01/05 11:34:38;;;;;;;14.48;2.33;;;7.30;99.90;;;;;;4973149;28;20035;-59
2022/01/05 11:37:05;;;;;;;14.98;2.42;;;7.20;99.90;;;;;;4957706;28;20106;-59
2022/01/05 11:39:33;;;;;;;17.90;2.30;;;7.10;99.90;;;;;;4952361;28;20042;-58
2022/01/05 11:42:06;;;;;;;12.95;2.00;;;7.00;99.90;;;;;;4953618;28;20039;-59
2022/01/05 11:44:47;;;;;;;12.90;2.10;;;6.90;99.90;;;;;;4968228;28;20083;-59
2022/01/05 11:47:23;;;;;;;13.13;2.20;;;6.70;99.90;;;;;;4973205;28;20070;-59
2022/01/05 11:49:49;;;;;;;11.45;1.65;;;6.60;99.90;;;;;;4965966;28;20093;-58
2022/01/05 11:52:15;;;;;;;11.65;1.80;;;6.40;99.90;;;;;;4958617;28;20050;-57
2022/01/05 11:55:01;;;;;;;14.25;2.30;;;6.30;99.90;;;;;;4962751;28;20039;-57
2022/01/05 11:57:27;;;;;;;13.40;2.33;;;6.30;99.90;;;;;;4972195;28;20054;-58
2022/01/05 12:00:17;;;;;;;18.73;2.40;;;6.50;99.90;;;;;;4971610;28;20035;-57
2022/01/05 12:02:42;;;;;;;19.75;2.55;;;6.80;99.90;;;;;;4961470;28;20054;-58
2022/01/05 12:05:08;;;;;;;20.65;3.03;;;7.00;99.90;;;;;;4965096;28;20046;-59
2022/01/05 12:07:34;;;;;;;26.30;3.10;;;7.00;99.90;;;;;;4961197;28;20043;-58
2022/01/05 12:10:00;;;;;;;19.88;2.90;;;7.00;99.90;;;;;;4960301;28;20502;-58
2022/01/05 12:12:31;;;;;;;18.98;3.20;;;6.80;99.90;;;;;;4960367;28;20126;-57
2022/01/05 12:14:58;;;;;;;14.98;2.97;;;6.70;99.90;;;;;;4960588;28;20499;-57
2022/01/05 12:17:25;;;;;;;14.52;2.45;;;6.50;99.90;;;;;;4962976;28;20133;-58
2022/01/05 12:19:51;;;;;;;15.68;2.40;;;6.40;99.90;;;;;;4965285;28;20631;-57
2022/01/05 12:22:28;;;;;;;16.13;2.50;;;6.40;99.90;;;;;;4960584;28;20126;-57
2022/01/05 12:24:57;;;;;;;17.88;2.47;;;6.30;99.90;;;;;;4958955;28;20039;-58
2022/01/05 12:27:24;;;;;;;17.38;2.70;;;6.30;99.90;;;;;;4961255;28;20109;-57
2022/01/05 12:29:50;;;;;;;20.70;2.22;;;6.30;99.90;;;;;;4965293;28;20106;-58
2022/01/05 12:32:36;;;;;;;14.25;2.22;;;6.40;99.90;;;;;;4959386;28;20053;-58
2022/01/05 12:35:05;;;;;;;17.83;2.88;;;6.40;99.90;;;;;;4960040;28;20053;-57
2022/01/05 12:37:52;;;;;;;16.38;1.98;;;6.40;99.90;;;;;;4957594;28;20479;-58
2022/01/05 12:40:21;;;;;;;20.95;2.40;;;6.50;99.90;;;;;;4965097;28;20039;-58
2022/01/05 12:42:47;;;;;;;17.95;2.42;;;6.50;99.90;;;;;;4965679;28;20039;-58
2022/01/05 12:45:53;;;;;;;12.52;1.92;;;6.50;99.90;;;;;;4963141;28;20047;-58
2022/01/05 12:48:33;;;;;;;10.23;1.52;;;6.50;99.90;;;;;;4965655;28;20486;-58
2022/01/05 12:51:14;;;;;;;12.70;1.75;;;6.60;99.90;;;;;;4964680;28;20066;-58
2022/01/05 12:54:10;;;;;;;13.10;1.50;;;6.60;99.90;;;;;;4963874;28;20041;-58